sensor_id;sensor_type;location;lat;lon;timestamp;pressure;altitude;pressure_sealevel;temperature;humidity
23170;BME280;11753;43.144;24.714;2022-11-15T00:00:33;100409.22;;;9.61;100.00
23170;BME280;11753;43.144;24.714;2022-11-15T00:01:34;100407.28;;;9.63;100.00
23170;BME280;11753;43.144;24.714;2022-11-15T00:02:37;100416.97;;;9.63;100.00
23170;BME280;11753;43.144;24.714;2022-11-15T00:03:38;100409.81;;;9.65;100.00
23170;BME280;11753;43.144;24.714;2022-11-15T00:04:38;100415.25;;;9.52;100.00
23170;BME280;11753;43.144;24.714;2022-11-15T00:05:39;100406.25;;;9.55;100.00
23170;BME280;11753;43.144;24.714;2022-11-15T00:06:39;100412.22;;;9.57;100.00
23170;BME280;11753;43.144;24.714;2022-11-15T00:07:40;100406.97;;;9.57;100.00
23170;BME280;11753;43.144;24.714;2022-11-15T00:08:41;100410.31;;;9.59;100.00
23170;BME280;11753;43.144;24.714;2022-11-15T00:09:41;100410.19;;;9.60;100.00
23170;BME280;11753;43.144;24.714;2022-11-15T00:10:42;100403.41;;;9.58;100.00
23170;BME280;11753;43.144;24.714;2022-11-15T00:11:43;100408.75;;;9.56;100.00
23170;BME280;11753;43.144;24.714;2022-11-15T00:12:43;100403.50;;;9.56;100.00
23170;BME280;11753;43.144;24.714;2022-11-15T00:13:44;100405.31;;;9.56;100.00
23170;BME280;11753;43.144;24.714;2022-11-15T00:14:44;100399.06;;;9.57;100.00
23170;BME280;11753;43.144;24.714;2022-11-15T00:15:45;100409.34;;;9.60;100.00
23170;BME280;11753;43.144;24.714;2022-11-15T00:16:45;100410.88;;;9.62;100.00
23170;BME280;11753;43.144;24.714;2022-11-15T00:17:49;100405.19;;;9.57;100.00
23170;BME280;11753;43.144;24.714;2022-11-15T00:18:50;100400.78;;;9.58;100.00
23170;BME280;11753;43.144;24.714;2022-11-15T00:19:51;100406.97;;;9.57;100.00
23170;BME280;11753;43.144;24.714;2022-11-15T00:20:52;100404.22;;;9.58;100.00
23170;BME280;11753;43.144;24.714;2022-11-15T00:21:52;100404.22;;;9.58;100.00
23170;BME280;11753;43.144;24.714;2022-11-15T00:22:53;100395.63;;;9.56;100.00
23170;BME280;11753;43.144;24.714;2022-11-15T00:23:54;100403.41;;;9.58;100.00
23170;BME280;11753;43.144;24.714;2022-11-15T00:24:54;100404.22;;;9.58;100.00
23170;BME280;11753;43.144;24.714;2022-11-15T00:25:58;100400.78;;;9.58;100.00
23170;BME280;11753;43.144;24.714;2022-11-15T00:26:59;100400.03;;;9.56;100.00
23170;BME280;11753;43.144;24.714;2022-11-15T00:28:00;100395.88;;;9.53;100.00
23170;BME280;11753;43.144;24.714;2022-11-15T00:29:01;100394.78;;;9.56;100.00
23170;BME280;11753;43.144;24.714;2022-11-15T00:30:02;100383.56;;;9.54;100.00
23170;BME280;11753;43.144;24.714;2022-11-15T00:31:04;100384.28;;;9.56;100.00
23170;BME280;11753;43.144;24.714;2022-11-15T00:32:05;100393.13;;;9.55;100.00
23170;BME280;11753;43.144;24.714;2022-11-15T00:33:06;100389.78;;;9.53;100.00
23170;BME280;11753;43.144;24.714;2022-11-15T00:34:08;100377.63;;;9.52;100.00
23170;BME280;11753;43.144;24.714;2022-11-15T00:35:09;100382.88;;;9.52;100.00
23170;BME280;11753;43.144;24.714;2022-11-15T00:36:09;100382.59;;;9.55;100.00
23170;BME280;11753;43.144;24.714;2022-11-15T00:37:11;100386.19;;;9.54;100.00
23170;BME280;11753;43.144;24.714;2022-11-15T00:38:12;100384.28;;;9.56;100.00
23170;BME280;11753;43.144;24.714;2022-11-15T00:39:13;100381.63;;;9.56;100.00
23170;BME280;11753;43.144;24.714;2022-11-15T00:40:14;100375.81;;;9.52;100.00
23170;BME280;11753;43.144;24.714;2022-11-15T00:41:15;100382.88;;;9.52;100.00
23170;BME280;11753;43.144;24.714;2022-11-15T00:42:16;100385.38;;;9.53;100.00
23170;BME280;11753;43.144;24.714;2022-11-15T00:43:16;100382.88;;;9.52;100.00
23170;BME280;11753;43.144;24.714;2022-11-15T00:44:17;100377.63;;;9.52;100.00
23170;BME280;11753;43.144;24.714;2022-11-15T00:45:17;100366.13;;;9.53;100.00
23170;BME280;11753;43.144;24.714;2022-11-15T00:46:18;100377.34;;;9.55;100.00
23170;BME280;11753;43.144;24.714;2022-11-15T00:47:18;100377.63;;;9.52;100.00
23170;BME280;11753;43.144;24.714;2022-11-15T00:48:19;100373.88;;;9.54;100.00
23170;BME280;11753;43.144;24.714;2022-11-15T00:49:19;100375.00;;;9.52;100.00
23170;BME280;11753;43.144;24.714;2022-11-15T00:50:20;100372.09;;;9.55;100.00
23170;BME280;11753;43.144;24.714;2022-11-15T00:51:20;100377.13;;;9.58;100.00
23170;BME280;11753;43.144;24.714;2022-11-15T00:52:21;100380.56;;;9.58;100.00
23170;BME280;11753;43.144;24.714;2022-11-15T00:53:21;100376.53;;;9.54;100.00
23170;BME280;11753;43.144;24.714;2022-11-15T00:54:22;100374.72;;;9.55;100.00
23170;BME280;11753;43.144;24.714;2022-11-15T00:55:22;100375.41;;;9.57;100.00
23170;BME280;11753;43.144;24.714;2022-11-15T00:56:23;100375.41;;;9.57;100.00
23170;BME280;11753;43.144;24.714;2022-11-15T00:57:24;100373.75;;;9.56;100.00
23170;BME280;11753;43.144;24.714;2022-11-15T00:58:25;100370.16;;;9.57;100.00
23170;BME280;11753;43.144;24.714;2022-11-15T00:59:25;100377.94;;;9.58;100.00
23170;BME280;11753;43.144;24.714;2022-11-15T01:00:26;100371.97;;;9.56;100.00
23170;BME280;11753;43.144;24.714;2022-11-15T01:01:26;100375.56;;;9.55;100.00
23170;BME280;11753;43.144;24.714;2022-11-15T01:02:27;100373.75;;;9.56;100.00
23170;BME280;11753;43.144;24.714;2022-11-15T01:03:28;100369.47;;;9.55;100.00
23170;BME280;11753;43.144;24.714;2022-11-15T01:04:28;100370.44;;;9.54;100.00
23170;BME280;11753;43.144;24.714;2022-11-15T01:05:29;100365.19;;;9.54;100.00
23170;BME280;11753;43.144;24.714;2022-11-15T01:06:29;100360.50;;;9.57;100.00
23170;BME280;11753;43.144;24.714;2022-11-15T01:07:32;100359.66;;;9.57;100.00
23170;BME280;11753;43.144;24.714;2022-11-15T01:08:33;100361.34;;;9.58;100.00
23170;BME280;11753;43.144;24.714;2022-11-15T01:09:34;100363.00;;;9.59;100.00
23170;BME280;11753;43.144;24.714;2022-11-15T01:10:36;100362.16;;;9.58;100.00
23170;BME280;11753;43.144;24.714;2022-11-15T01:11:37;100358.72;;;9.58;100.00
23170;BME280;11753;43.144;24.714;2022-11-15T01:12:37;100357.88;;;9.57;100.00
23170;BME280;11753;43.144;24.714;2022-11-15T01:13:39;100363.13;;;9.57;100.00
23170;BME280;11753;43.144;24.714;2022-11-15T01:14:39;100355.34;;;9.56;100.00
23170;BME280;11753;43.144;24.714;2022-11-15T01:15:40;100357.28;;;9.54;100.00
23170;BME280;11753;43.144;24.714;2022-11-15T01:16:41;100353.44;;;9.58;100.00
23170;BME280;11753;43.144;24.714;2022-11-15T01:17:43;100350.22;;;9.54;100.00
23170;BME280;11753;43.144;24.714;2022-11-15T01:18:45;100354.38;;;9.57;100.00
23170;BME280;11753;43.144;24.714;2022-11-15T01:19:46;100342.94;;;9.58;100.00
23170;BME280;11753;43.144;24.714;2022-11-15T01:20:46;100341.53;;;9.54;100.00
23170;BME280;11753;43.144;24.714;2022-11-15T01:21:49;100343.03;;;9.56;100.00
23170;BME280;11753;43.144;24.714;2022-11-15T01:22:50;100347.47;;;9.56;100.00
23170;BME280;11753;43.144;24.714;2022-11-15T01:23:55;100341.25;;;9.57;100.00
23170;BME280;11753;43.144;24.714;2022-11-15T01:24:56;100343.31;;;9.53;100.00
23170;BME280;11753;43.144;24.714;2022-11-15T01:26:01;100340.00;;;9.51;100.00
23170;BME280;11753;43.144;24.714;2022-11-15T01:27:02;100338.06;;;9.53;100.00
23170;BME280;11753;43.144;24.714;2022-11-15T01:28:03;100346.09;;;9.52;100.00
23170;BME280;11753;43.144;24.714;2022-11-15T01:29:04;100336.97;;;9.56;100.00
23170;BME280;11753;43.144;24.714;2022-11-15T01:30:06;100330.03;;;9.55;100.00
23170;BME280;11753;43.144;24.714;2022-11-15T01:31:12;100340.41;;;9.56;100.00
23170;BME280;11753;43.144;24.714;2022-11-15T01:32:14;100333.63;;;9.54;100.00
23170;BME280;11753;43.144;24.714;2022-11-15T01:33:15;100340.56;;;9.55;100.00
23170;BME280;11753;43.144;24.714;2022-11-15T01:34:16;100336.41;;;9.52;100.00
23170;BME280;11753;43.144;24.714;2022-11-15T01:35:17;100334.59;;;9.53;100.00
23170;BME280;11753;43.144;24.714;2022-11-15T01:36:20;100341.91;;;9.49;100.00
23170;BME280;11753;43.144;24.714;2022-11-15T01:37:24;100334.84;;;9.50;100.00
23170;BME280;11753;43.144;24.714;2022-11-15T01:38:25;100337.75;;;9.47;100.00
23170;BME280;11753;43.144;24.714;2022-11-15T01:39:26;100340.38;;;9.47;100.00
23170;BME280;11753;43.144;24.714;2022-11-15T01:40:27;100345.50;;;9.48;100.00
23170;BME280;11753;43.144;24.714;2022-11-15T01:41:30;100343.81;;;9.47;100.00
23170;BME280;11753;43.144;24.714;2022-11-15T01:42:32;100346.31;;;9.49;100.00
23170;BME280;11753;43.144;24.714;2022-11-15T01:43:36;100345.63;;;9.47;100.00
23170;BME280;11753;43.144;24.714;2022-11-15T01:44:41;100340.22;;;9.48;100.00
23170;BME280;11753;43.144;24.714;2022-11-15T01:45:43;100345.25;;;9.51;100.00
23170;BME280;11753;43.144;24.714;2022-11-15T01:46:47;100345.34;;;9.50;100.00
23170;BME280;11753;43.144;24.714;2022-11-15T01:47:51;100350.88;;;9.47;100.00
23170;BME280;11753;43.144;24.714;2022-11-15T01:48:55;100338.56;;;9.47;100.00
23170;BME280;11753;43.144;24.714;2022-11-15T01:50:02;100341.19;;;9.47;100.00
23170;BME280;11753;43.144;24.714;2022-11-15T01:51:07;100342.03;;;9.48;100.00
23170;BME280;11753;43.144;24.714;2022-11-15T01:52:13;100345.63;;;9.47;100.00
23170;BME280;11753;43.144;24.714;2022-11-15T01:53:15;100351.16;;;9.44;100.00
23170;BME280;11753;43.144;24.714;2022-11-15T01:54:18;100342.81;;;9.38;100.00
23170;BME280;11753;43.144;24.714;2022-11-15T01:55:25;100333.81;;;9.41;100.00
23170;BME280;11753;43.144;24.714;2022-11-15T01:56:29;100341.34;;;9.46;100.00
23170;BME280;11753;43.144;24.714;2022-11-15T01:57:30;100334.16;;;9.48;100.00
23170;BME280;11753;43.144;24.714;2022-11-15T01:58:32;100343.69;;;9.49;100.00
23170;BME280;11753;43.144;24.714;2022-11-15T01:59:34;100339.41;;;9.48;100.00
23170;BME280;11753;43.144;24.714;2022-11-15T02:00:35;100344.66;;;9.48;100.00
23170;BME280;11753;43.144;24.714;2022-11-15T02:01:37;100343.69;;;9.49;100.00
23170;BME280;11753;43.144;24.714;2022-11-15T02:02:38;100328.75;;;9.49;100.00
23170;BME280;11753;43.144;24.714;2022-11-15T02:04:20;100340.81;;;9.52;100.00
23170;BME280;11753;43.144;24.714;2022-11-15T02:05:23;100332.22;;;9.50;100.00
23170;BME280;11753;43.144;24.714;2022-11-15T02:06:24;100339.66;;;9.45;100.00
23170;BME280;11753;43.144;24.714;2022-11-15T02:07:25;100337.75;;;9.47;100.00
23170;BME280;11753;43.144;24.714;2022-11-15T02:08:27;100345.06;;;9.43;100.00
23170;BME280;11753;43.144;24.714;2022-11-15T02:09:29;100334.41;;;9.45;100.00
23170;BME280;11753;43.144;24.714;2022-11-15T02:10:30;100338.00;;;9.44;100.00
23170;BME280;11753;43.144;24.714;2022-11-15T02:11:30;100336.06;;;9.46;100.00
23170;BME280;11753;43.144;24.714;2022-11-15T02:12:31;100341.19;;;9.47;100.00
23170;BME280;11753;43.144;24.714;2022-11-15T02:13:32;100331.50;;;9.48;100.00
23170;BME280;11753;43.144;24.714;2022-11-15T02:14:33;100335.81;;;9.49;100.00
23170;BME280;11753;43.144;24.714;2022-11-15T02:15:40;100330.56;;;9.49;100.00
23170;BME280;11753;43.144;24.714;2022-11-15T02:23:56;100334.00;;;9.49;100.00
23170;BME280;11753;43.144;24.714;2022-11-15T02:25:11;100331.28;;;9.51;100.00
23170;BME280;11753;43.144;24.714;2022-11-15T02:29:06;100334.41;;;9.45;100.00
23170;BME280;11753;43.144;24.714;2022-11-15T02:31:28;100330.38;;;9.41;100.00
23170;BME280;11753;43.144;24.714;2022-11-15T02:32:42;100319.03;;;9.40;100.00
23170;BME280;11753;43.144;24.714;2022-11-15T02:34:04;100322.09;;;9.45;100.00
23170;BME280;11753;43.144;24.714;2022-11-15T02:35:15;100321.97;;;9.47;100.00
23170;BME280;11753;43.144;24.714;2022-11-15T02:36:20;100319.16;;;9.38;100.00
23170;BME280;11753;43.144;24.714;2022-11-15T02:41:54;100311.97;;;9.41;100.00
23170;BME280;11753;43.144;24.714;2022-11-15T02:43:09;100316.25;;;9.42;100.00
23170;BME280;11753;43.144;24.714;2022-11-15T02:44:43;100313.91;;;9.38;100.00
23170;BME280;11753;43.144;24.714;2022-11-15T02:45:50;100315.84;;;9.36;100.00
23170;BME280;11753;43.144;24.714;2022-11-15T02:47:00;100319.41;;;9.35;100.00
23170;BME280;11753;43.144;24.714;2022-11-15T02:48:21;100314.59;;;9.41;100.00
23170;BME280;11753;43.144;24.714;2022-11-15T02:49:26;100318.88;;;9.42;100.00
23170;BME280;11753;43.144;24.714;2022-11-15T02:50:29;100317.09;;;9.42;100.00
23170;BME280;11753;43.144;24.714;2022-11-15T02:51:33;100321.50;;;9.42;100.00
23170;BME280;11753;43.144;24.714;2022-11-15T02:52:33;100312.81;;;9.41;100.00
23170;BME280;11753;43.144;24.714;2022-11-15T02:53:34;100318.88;;;9.42;100.00
23170;BME280;11753;43.144;24.714;2022-11-15T02:54:36;100310.16;;;9.41;100.00
23170;BME280;11753;43.144;24.714;2022-11-15T02:55:40;100317.81;;;9.44;100.00
23170;BME280;11753;43.144;24.714;2022-11-15T02:56:45;100315.28;;;9.43;100.00
23170;BME280;11753;43.144;24.714;2022-11-15T03:00:35;100317.09;;;9.42;100.00
23170;BME280;11753;43.144;24.714;2022-11-15T03:01:47;100327.50;;;9.44;100.00
23170;BME280;11753;43.144;24.714;2022-11-15T03:05:34;100320.56;;;9.43;100.00
23170;BME280;11753;43.144;24.714;2022-11-15T03:06:54;100322.94;;;9.46;100.00
23170;BME280;11753;43.144;24.714;2022-11-15T03:11:15;100322.03;;;9.35;100.00
23170;BME280;11753;43.144;24.714;2022-11-15T03:12:34;100315.56;;;9.40;100.00
23170;BME280;11753;43.144;24.714;2022-11-15T03:14:00;100315.56;;;9.40;100.00
23170;BME280;11753;43.144;24.714;2022-11-15T03:15:16;100315.56;;;9.40;100.00
23170;BME280;11753;43.144;24.714;2022-11-15T03:17:55;100316.16;;;9.43;100.00
23170;BME280;11753;43.144;24.714;2022-11-15T03:20:10;100313.63;;;9.42;100.00
23170;BME280;11753;43.144;24.714;2022-11-15T03:21:14;100308.66;;;9.38;100.00
23170;BME280;11753;43.144;24.714;2022-11-15T03:22:19;100307.13;;;9.36;100.00
23170;BME280;11753;43.144;24.714;2022-11-15T03:23:20;100305.06;;;9.40;100.00
23170;BME280;11753;43.144;24.714;2022-11-15T03:24:23;100305.06;;;9.40;100.00
23170;BME280;11753;43.144;24.714;2022-11-15T03:25:26;100312.94;;;9.40;100.00
23170;BME280;11753;43.144;24.714;2022-11-15T03:26:29;100300.75;;;9.38;100.00
23170;BME280;11753;43.144;24.714;2022-11-15T03:27:35;100302.28;;;9.41;100.00
23170;BME280;11753;43.144;24.714;2022-11-15T03:29:00;100306.72;;;9.41;100.00
23170;BME280;11753;43.144;24.714;2022-11-15T03:30:06;100306.72;;;9.41;100.00
23170;BME280;11753;43.144;24.714;2022-11-15T03:31:08;100301.47;;;9.41;100.00
23170;BME280;11753;43.144;24.714;2022-11-15T03:32:35;100295.97;;;9.44;100.00
23170;BME280;11753;43.144;24.714;2022-11-15T03:33:37;100293.44;;;9.42;100.00
23170;BME280;11753;43.144;24.714;2022-11-15T03:35:04;100293.06;;;9.47;100.00
23170;BME280;11753;43.144;24.714;2022-11-15T03:36:04;100292.09;;;9.48;100.00
23170;BME280;11753;43.144;24.714;2022-11-15T03:37:05;100295.69;;;9.47;100.00
23170;BME280;11753;43.144;24.714;2022-11-15T03:38:26;100295.00;;;9.45;100.00
23170;BME280;11753;43.144;24.714;2022-11-15T03:39:30;100297.16;;;9.40;100.00
23170;BME280;11753;43.144;24.714;2022-11-15T03:40:42;100291.63;;;9.43;100.00
23170;BME280;11753;43.144;24.714;2022-11-15T03:43:24;100290.72;;;9.44;100.00
23170;BME280;11753;43.144;24.714;2022-11-15T03:46:00;100288.06;;;9.44;100.00
23170;BME280;11753;43.144;24.714;2022-11-15T03:48:27;100289.00;;;9.43;100.00
23170;BME280;11753;43.144;24.714;2022-11-15T03:49:33;100283.88;;;9.41;100.00
23170;BME280;11753;43.144;24.714;2022-11-15T03:50:38;100287.34;;;9.42;100.00
23170;BME280;11753;43.144;24.714;2022-11-15T03:51:39;100284.72;;;9.42;100.00
23170;BME280;11753;43.144;24.714;2022-11-15T03:52:41;100283.66;;;9.44;100.00
23170;BME280;11753;43.144;24.714;2022-11-15T03:53:42;100281.03;;;9.44;100.00
23170;BME280;11753;43.144;24.714;2022-11-15T03:54:53;100267.06;;;9.44;100.00
23170;BME280;11753;43.144;24.714;2022-11-15T03:55:54;100273.84;;;9.46;100.00
23170;BME280;11753;43.144;24.714;2022-11-15T03:56:55;100274.66;;;9.47;100.00
23170;BME280;11753;43.144;24.714;2022-11-15T03:57:58;100271.06;;;9.48;100.00
23170;BME280;11753;43.144;24.714;2022-11-15T03:59:00;100269.41;;;9.47;100.00
23170;BME280;11753;43.144;24.714;2022-11-15T04:00:01;100271.91;;;9.48;100.00
23170;BME280;11753;43.144;24.714;2022-11-15T04:01:03;100273.00;;;9.46;100.00
23170;BME280;11753;43.144;24.714;2022-11-15T04:02:04;100264.44;;;9.44;100.00
23170;BME280;11753;43.144;24.714;2022-11-15T04:03:05;100269.69;;;9.44;100.00
23170;BME280;11753;43.144;24.714;2022-11-15T04:04:05;100270.63;;;9.43;100.00
23170;BME280;11753;43.144;24.714;2022-11-15T04:05:07;100261.06;;;9.42;100.00
23170;BME280;11753;43.144;24.714;2022-11-15T04:06:07;100265.34;;;9.43;100.00
23170;BME280;11753;43.144;24.714;2022-11-15T04:07:08;100271.59;;;9.42;100.00
23170;BME280;11753;43.144;24.714;2022-11-15T04:08:08;100268.84;;;9.43;100.00
23170;BME280;11753;43.144;24.714;2022-11-15T04:09:09;100271.34;;;9.45;100.00
23170;BME280;11753;43.144;24.714;2022-11-15T04:10:11;100267.06;;;9.44;100.00
23170;BME280;11753;43.144;24.714;2022-11-15T04:11:11;100264.44;;;9.44;100.00
23170;BME280;11753;43.144;24.714;2022-11-15T04:12:12;100266.31;;;9.42;100.00
23170;BME280;11753;43.144;24.714;2022-11-15T04:13:12;100261.34;;;9.38;100.00
23170;BME280;11753;43.144;24.714;2022-11-15T04:14:13;100263.00;;;9.40;100.00
23170;BME280;11753;43.144;24.714;2022-11-15T04:15:16;100269.91;;;9.41;100.00
23170;BME280;11753;43.144;24.714;2022-11-15T04:16:17;100262.44;;;9.36;100.00
23170;BME280;11753;43.144;24.714;2022-11-15T04:17:18;100268.13;;;9.41;100.00
23170;BME280;11753;43.144;24.714;2022-11-15T04:18:18;100259.41;;;9.41;100.00
23170;BME280;11753;43.144;24.714;2022-11-15T04:19:19;100267.06;;;9.44;100.00
23170;BME280;11753;43.144;24.714;2022-11-15T04:20:38;100258.44;;;9.42;100.00
23170;BME280;11753;43.144;24.714;2022-11-15T04:21:58;100256.34;;;9.35;100.00
23170;BME280;11753;43.144;24.714;2022-11-15T04:23:19;100266.75;;;9.37;100.00
23170;BME280;11753;43.144;24.714;2022-11-15T04:24:39;100261.34;;;9.38;100.00
23170;BME280;11753;43.144;24.714;2022-11-15T04:25:41;100252.78;;;9.36;100.00
23170;BME280;11753;43.144;24.714;2022-11-15T04:26:43;100261.34;;;9.38;100.00
23170;BME280;11753;43.144;24.714;2022-11-15T04:27:44;100256.91;;;9.39;100.00
23170;BME280;11753;43.144;24.714;2022-11-15T04:28:45;100249.16;;;9.37;100.00
23170;BME280;11753;43.144;24.714;2022-11-15T04:30:05;100253.47;;;9.38;100.00
23170;BME280;11753;43.144;24.714;2022-11-15T04:31:06;100253.59;;;9.37;100.00
23170;BME280;11753;43.144;24.714;2022-11-15T04:32:07;100250.00;;;9.38;100.00
23170;BME280;11753;43.144;24.714;2022-11-15T04:33:08;100250.56;;;9.42;100.00
23170;BME280;11753;43.144;24.714;2022-11-15T04:34:09;100252.50;;;9.40;100.00
23170;BME280;11753;43.144;24.714;2022-11-15T04:35:10;100246.28;;;9.41;100.00
23170;BME280;11753;43.144;24.714;2022-11-15T04:36:11;100247.75;;;9.33;100.00
23170;BME280;11753;43.144;24.714;2022-11-15T04:37:35;100251.06;;;9.35;100.00
23170;BME280;11753;43.144;24.714;2022-11-15T04:38:36;100247.75;;;9.33;100.00
23170;BME280;11753;43.144;24.714;2022-11-15T04:39:37;100253.69;;;9.35;100.00
23170;BME280;11753;43.144;24.714;2022-11-15T04:40:38;100249.16;;;9.37;100.00
23170;BME280;11753;43.144;24.714;2022-11-15T04:41:38;100243.19;;;9.35;100.00
23170;BME280;11753;43.144;24.714;2022-11-15T04:42:41;100247.50;;;9.36;100.00
23170;BME280;11753;43.144;24.714;2022-11-15T04:43:42;100246.78;;;9.34;100.00
23170;BME280;11753;43.144;24.714;2022-11-15T04:44:43;100244.44;;;9.31;100.00
23170;BME280;11753;43.144;24.714;2022-11-15T04:45:43;100250.13;;;9.36;100.00
23170;BME280;11753;43.144;24.714;2022-11-15T04:46:44;100249.03;;;9.39;100.00
23170;BME280;11753;43.144;24.714;2022-11-15T04:47:47;100245.31;;;9.42;100.00
23170;BME280;11753;43.144;24.714;2022-11-15T04:48:48;100255.56;;;9.45;100.00
23170;BME280;11753;43.144;24.714;2022-11-15T04:49:48;100243.41;;;9.44;100.00
23170;BME280;11753;43.144;24.714;2022-11-15T04:50:49;100240.19;;;9.40;100.00
23170;BME280;11753;43.144;24.714;2022-11-15T04:51:49;100245.59;;;9.38;100.00
23170;BME280;11753;43.144;24.714;2022-11-15T04:52:52;100245.00;;;9.35;100.00
23170;BME280;11753;43.144;24.714;2022-11-15T04:53:54;100248.59;;;9.34;100.00
23170;BME280;11753;43.144;24.714;2022-11-15T04:54:55;100242.38;;;9.35;100.00
23170;BME280;11753;43.144;24.714;2022-11-15T04:55:56;100245.81;;;9.35;100.00
23170;BME280;11753;43.144;24.714;2022-11-15T04:56:57;100240.47;;;9.37;100.00
23170;BME280;11753;43.144;24.714;2022-11-15T04:58:02;100241.53;;;9.34;100.00
23170;BME280;11753;43.144;24.714;2022-11-15T04:59:03;100243.91;;;9.37;100.00
23170;BME280;11753;43.144;24.714;2022-11-15T05:00:06;100238.66;;;9.37;100.00
23170;BME280;11753;43.144;24.714;2022-11-15T05:01:11;100239.88;;;9.33;100.00
23170;BME280;11753;43.144;24.714;2022-11-15T05:02:15;100238.66;;;9.37;100.00
23170;BME280;11753;43.144;24.714;2022-11-15T05:03:16;100238.22;;;9.32;100.00
23170;BME280;11753;43.144;24.714;2022-11-15T05:04:35;100242.25;;;9.36;100.00
23170;BME280;11753;43.144;24.714;2022-11-15T05:05:37;100242.50;;;9.33;100.00
23170;BME280;11753;43.144;24.714;2022-11-15T05:06:38;100239.19;;;9.31;100.00
23170;BME280;11753;43.144;24.714;2022-11-15T05:07:39;100240.84;;;9.32;100.00
23170;BME280;11753;43.144;24.714;2022-11-15T05:08:40;100242.25;;;9.36;100.00
23170;BME280;11753;43.144;24.714;2022-11-15T05:09:41;100245.13;;;9.33;100.00
23170;BME280;11753;43.144;24.714;2022-11-15T05:10:42;100246.78;;;9.34;100.00
23170;BME280;11753;43.144;24.714;2022-11-15T05:11:43;100242.63;;;9.32;100.00
23170;BME280;11753;43.144;24.714;2022-11-15T05:12:44;100238.91;;;9.34;100.00
23170;BME280;11753;43.144;24.714;2022-11-15T05:13:45;100237.69;;;9.38;100.00
23170;BME280;11753;43.144;24.714;2022-11-15T05:14:45;100245.59;;;9.38;100.00
23170;BME280;11753;43.144;24.714;2022-11-15T05:15:47;100242.25;;;9.36;100.00
23170;BME280;11753;43.144;24.714;2022-11-15T05:16:48;100248.06;;;9.40;100.00
23170;BME280;11753;43.144;24.714;2022-11-15T05:17:48;100243.59;;;9.31;100.00
23170;BME280;11753;43.144;24.714;2022-11-15T05:18:53;100248.03;;;9.30;100.00
23170;BME280;11753;43.144;24.714;2022-11-15T05:19:55;100247.06;;;9.31;100.00
23170;BME280;11753;43.144;24.714;2022-11-15T05:20:56;100236.56;;;9.31;100.00
23170;BME280;11753;43.144;24.714;2022-11-15T05:22:03;100240.84;;;9.32;100.00
23170;BME280;11753;43.144;24.714;2022-11-15T05:23:04;100241.81;;;9.31;100.00
23170;BME280;11753;43.144;24.714;2022-11-15T05:24:05;100247.75;;;9.33;100.00
23170;BME280;11753;43.144;24.714;2022-11-15T05:25:07;100247.75;;;9.33;100.00
23170;BME280;11753;43.144;24.714;2022-11-15T05:26:08;100244.31;;;9.33;100.00
23170;BME280;11753;43.144;24.714;2022-11-15T05:27:10;100254.56;;;9.36;100.00
23170;BME280;11753;43.144;24.714;2022-11-15T05:28:11;100255.63;;;9.33;100.00
23170;BME280;11753;43.144;24.714;2022-11-15T05:29:13;100256.34;;;9.35;100.00
23170;BME280;11753;43.144;24.714;2022-11-15T05:30:15;100254.81;;;9.33;100.00
23170;BME280;11753;43.144;24.714;2022-11-15T05:31:16;100259.22;;;9.32;100.00
23170;BME280;11753;43.144;24.714;2022-11-15T05:32:17;100250.53;;;9.32;100.00
23170;BME280;11753;43.144;24.714;2022-11-15T05:33:19;100260.44;;;9.28;100.00
23170;BME280;11753;43.144;24.714;2022-11-15T05:34:22;100249.09;;;9.28;100.00
23170;BME280;11753;43.144;24.714;2022-11-15T05:35:40;100253.28;;;9.30;100.00
23170;BME280;11753;43.144;24.714;2022-11-15T05:36:42;100256.88;;;9.29;100.00
23170;BME280;11753;43.144;24.714;2022-11-15T05:37:46;100259.50;;;9.29;100.00
23170;BME280;11753;43.144;24.714;2022-11-15T05:38:48;100256.47;;;9.34;100.00
23170;BME280;11753;43.144;24.714;2022-11-15T05:39:49;100259.09;;;9.34;100.00
23170;BME280;11753;43.144;24.714;2022-11-15T05:40:50;100259.09;;;9.34;100.00
23170;BME280;11753;43.144;24.714;2022-11-15T05:41:53;100262.56;;;9.34;100.00
23170;BME280;11753;43.144;24.714;2022-11-15T05:42:54;100261.59;;;9.35;100.00
23170;BME280;11753;43.144;24.714;2022-11-15T05:43:55;100256.47;;;9.34;100.00
23170;BME280;11753;43.144;24.714;2022-11-15T05:44:56;100258.25;;;9.33;100.00
23170;BME280;11753;43.144;24.714;2022-11-15T05:45:58;100261.59;;;9.35;100.00
23170;BME280;11753;43.144;24.714;2022-11-15T05:46:59;100261.03;;;9.32;100.00
23170;BME280;11753;43.144;24.714;2022-11-15T05:48:05;100261.84;;;9.32;100.00
23170;BME280;11753;43.144;24.714;2022-11-15T05:49:10;100269.47;;;9.35;100.00
23170;BME280;11753;43.144;24.714;2022-11-15T05:50:16;100256.34;;;9.35;100.00
23170;BME280;11753;43.144;24.714;2022-11-15T05:51:19;100260.06;;;9.33;100.00
23170;BME280;11753;43.144;24.714;2022-11-15T05:52:24;100262.44;;;9.36;100.00
23170;BME280;11753;43.144;24.714;2022-11-15T05:53:26;100258.97;;;9.35;100.00
23170;BME280;11753;43.144;24.714;2022-11-15T05:54:27;100267.63;;;9.26;100.00
23170;BME280;11753;43.144;24.714;2022-11-15T05:55:28;100262.13;;;9.29;100.00
23170;BME280;11753;43.144;24.714;2022-11-15T05:56:29;100262.81;;;9.31;100.00
23170;BME280;11753;43.144;24.714;2022-11-15T05:57:30;100269.88;;;9.31;100.00
23170;BME280;11753;43.144;24.714;2022-11-15T05:58:34;100262.13;;;9.29;100.00
23170;BME280;11753;43.144;24.714;2022-11-15T05:59:35;100261.03;;;9.32;100.00